Time;durP1;ratioP1;P1;durP2;ratioP2;P2;SDS_P1;SDS_P2;PMS_P1;PMS_P2;Temp;Humidity;BMP_temperature;BMP_pressure;BME280_temperature;BME280_humidity;BME280_pressure;Samples;Min_cycle;Max_cycle;Signal;HPM_P1;HPM_P2
2022/09/09 00:02:20;;;;;;;21.25;13.88;;;;;;;13.16;52.66;98095.73;1797290;79;20878;-61
2022/09/09 00:05:01;;;;;;;21.90;12.80;;;;;;;13.05;53.67;98090.29;1797385;79;20882;-61
2022/09/09 00:07:45;;;;;;;24.30;13.08;;;;;;;12.95;55.27;98095.34;1797577;79;21334;-60
2022/09/09 00:10:33;;;;;;;20.72;13.80;;;;;;;12.83;56.74;98096.98;1797284;79;20918;-61
2022/09/09 00:13:32;;;;;;;23.07;12.50;;;;;;;12.69;58.23;98086.81;1797338;79;21104;-60
2022/09/09 00:16:16;;;;;;;20.57;13.35;;;;;;;12.52;59.59;98083.94;1794111;79;20855;-61
2022/09/09 00:19:17;;;;;;;23.00;13.48;;;;;;;12.35;60.80;98084.00;1797284;79;20973;-59
2022/09/09 00:21:49;;;;;;;18.87;13.22;;;;;;;12.20;61.88;98078.14;1797310;79;21234;-63
2022/09/09 00:24:25;;;;;;;24.75;14.23;;;;;;;12.02;63.14;98081.15;1798635;79;20855;-61
2022/09/09 00:26:57;;;;;;;23.90;12.53;;;;;;;11.94;64.36;98081.05;1815944;79;20917;-61
2022/09/09 00:29:38;;;;;;;20.25;13.10;;;;;;;11.85;64.80;98090.31;1816041;79;20933;-61
2022/09/09 00:32:18;;;;;;;24.37;12.75;;;;;;;11.79;65.29;98098.75;1816096;78;21491;-61
2022/09/09 00:35:28;;;;;;;18.73;11.83;;;;;;;11.71;65.49;98094.86;1816061;79;21221;-59
2022/09/09 00:38:00;;;;;;;17.92;11.83;;;;;;;11.70;65.65;98081.74;1775067;79;21445;-60
2022/09/09 00:40:36;;;;;;;19.23;12.10;;;;;;;11.68;65.95;98086.84;1816085;78;20878;-61
2022/09/09 00:43:25;;;;;;;17.20;11.73;;;;;;;11.70;66.12;98079.86;1816399;79;20993;-61
2022/09/09 00:46:34;;;;;;;20.30;12.03;;;;;;;11.71;66.71;98082.78;1816091;79;21336;-62
2022/09/09 00:49:37;;;;;;;22.32;12.18;;;;;;;11.72;66.69;98077.68;1816065;79;22131;-60
2022/09/09 00:52:33;;;;;;;20.97;11.88;;;;;;;11.72;66.57;98068.28;1816083;79;20969;-59
2022/09/09 00:55:11;;;;;;;16.67;11.53;;;;;;;11.74;66.41;98053.22;1816188;79;20905;-62
2022/09/09 00:57:38;;;;;;;18.37;11.55;;;;;;;11.73;66.71;98055.10;1816174;78;21397;-62
2022/09/09 01:00:26;;;;;;;21.82;12.23;;;;;;;11.76;66.43;98049.16;1816156;78;20890;-62
2022/09/09 01:03:27;;;;;;;19.42;11.78;;;;;;;11.79;66.71;98053.14;1815987;78;21685;-60
2022/09/09 01:06:16;;;;;;;16.82;11.03;;;;;;;11.76;66.75;98049.16;1816055;79;20917;-62
2022/09/09 01:09:09;;;;;;;20.95;12.45;;;;;;;11.76;66.70;98047.02;1816101;79;20921;-59
2022/09/09 01:12:17;;;;;;;19.95;11.30;;;;;;;11.73;67.02;98048.39;1816283;79;21235;-62
2022/09/09 01:14:51;;;;;;;19.92;12.53;;;;;;;11.72;67.11;98045.48;1815555;78;20905;-61
2022/09/09 01:17:32;;;;;;;19.65;11.63;;;;;;;11.74;67.04;98043.83;1816133;78;21022;-61
2022/09/09 01:20:25;;;;;;;19.65;11.28;;;;;;;11.75;66.85;98047.58;1815844;79;20933;-60
2022/09/09 01:23:25;;;;;;;20.35;11.33;;;;;;;11.76;66.80;98046.47;1816224;79;21497;-60
2022/09/09 01:26:29;;;;;;;18.98;12.05;;;;;;;11.78;66.78;98055.55;1815686;78;21487;-62
2022/09/09 01:28:58;;;;;;;21.90;10.98;;;;;;;11.84;66.91;98057.87;1816025;78;20874;-60
2022/09/09 01:31:35;;;;;;;15.28;10.60;;;;;;;11.87;66.83;98065.88;1815294;79;21958;-62
2022/09/09 01:34:02;;;;;;;20.15;11.55;;;;;;;11.87;66.55;98064.54;1816449;79;21447;-61
2022/09/09 01:36:41;;;;;;;23.32;11.73;;;;;;;11.87;66.67;98063.97;1816005;79;20858;-59
2022/09/09 01:39:08;;;;;;;15.70;11.50;;;;;;;11.91;66.53;98069.55;1816180;79;20878;-59
2022/09/09 01:41:35;;;;;;;19.37;11.50;;;;;;;11.93;66.66;98066.83;1784557;79;20984;-61
2022/09/09 01:44:07;;;;;;;27.70;12.40;;;;;;;11.93;66.71;98059.31;1815685;79;21994;-59
2022/09/09 01:46:35;;;;;;;21.55;12.30;;;;;;;11.91;67.30;98056.94;1816127;78;20910;-62
2022/09/09 01:49:04;;;;;;;18.73;11.70;;;;;;;11.89;68.23;98069.86;1815980;78;20882;-62
2022/09/09 01:51:31;;;;;;;19.05;10.48;;;;;;;11.85;68.63;98074.75;1815981;78;20944;-59
2022/09/09 01:54:00;;;;;;;17.50;11.68;;;;;;;11.85;69.21;98084.95;1816011;78;20835;-61
2022/09/09 01:56:57;;;;;;;21.77;11.60;;;;;;;11.82;69.56;98098.17;1816062;79;21180;-62
2022/09/09 01:59:53;;;;;;;20.48;11.48;;;;;;;11.80;69.96;98107.84;1816053;78;20973;-61
2022/09/09 02:02:35;;;;;;;20.05;11.73;;;;;;;11.76;70.74;98112.22;1816201;79;20985;-60
2022/09/09 02:05:32;;;;;;;18.48;11.65;;;;;;;11.72;71.50;98112.56;1806927;79;20858;-61
2022/09/09 02:08:16;;;;;;;18.17;10.40;;;;;;;11.71;72.25;98110.15;1816042;79;20913;-59
2022/09/09 02:10:48;;;;;;;;;;;;;;;11.68;73.07;98100.27;1816948;79;21434;-61
2022/09/09 02:13:19;;;;;;;18.10;11.00;;;;;;;11.67;73.73;98096.52;1814240;79;20066;-61
2022/09/09 02:16:08;;;;;;;20.60;11.28;;;;;;;11.63;74.34;98090.15;1816602;78;20973;-61
2022/09/09 02:18:45;;;;;;;18.70;11.28;;;;;;;11.61;75.21;98079.70;1816134;79;20909;-59
2022/09/09 02:21:13;;;;;;;22.42;11.33;;;;;;;11.60;75.92;98078.66;1816177;78;20937;-61
2022/09/09 02:23:42;;;;;;;19.00;11.55;;;;;;;11.58;76.87;98075.48;1816326;78;21995;-62
2022/09/09 02:26:10;;;;;;;19.70;11.08;;;;;;;11.54;77.39;98070.45;1790694;79;21360;-63
2022/09/09 02:28:38;;;;;;;14.83;10.50;;;;;;;11.49;78.15;98062.49;1819685;79;21404;-61
2022/09/09 02:31:05;;;;;;;15.13;10.53;;;;;;;11.38;79.27;98065.07;1792209;79;20932;-63
2022/09/09 02:33:38;;;;;;;17.55;11.08;;;;;;;11.29;80.21;98060.13;1819065;79;20962;-59
2022/09/09 02:36:06;;;;;;;17.52;10.90;;;;;;;11.20;81.15;98053.84;1819704;79;21191;-60
2022/09/09 02:38:37;;;;;;;20.32;11.40;;;;;;;11.19;81.94;98069.69;1792569;79;21502;-59
2022/09/09 02:41:06;;;;;;;20.48;11.33;;;;;;;11.16;82.31;98068.92;1819028;79;20872;-60
2022/09/09 02:43:34;;;;;;;16.10;10.63;;;;;;;11.10;83.01;98057.47;1819626;79;20967;-62
2022/09/09 02:46:27;;;;;;;16.93;10.58;;;;;;;11.09;83.32;98059.92;1819580;79;20915;-61
2022/09/09 02:49:08;;;;;;;17.27;10.90;;;;;;;11.11;83.79;98064.44;1819685;79;21191;-59
2022/09/09 02:52:06;;;;;;;18.52;10.10;;;;;;;11.11;84.34;98081.06;1819916;78;20916;-62
2022/09/09 02:54:37;;;;;;;14.60;10.23;;;;;;;11.13;84.67;98089.07;1819572;79;21466;-62
2022/09/09 02:57:20;;;;;;;13.80;10.20;;;;;;;11.15;84.81;98090.91;1819500;79;20895;-61
2022/09/09 02:59:48;;;;;;;17.23;9.78;;;;;;;11.15;85.19;98082.06;1819827;79;21378;-62
2022/09/09 03:02:15;;;;;;;16.30;10.43;;;;;;;11.20;85.30;98080.66;1819517;79;21167;-59
2022/09/09 03:04:44;;;;;;;13.90;10.00;;;;;;;11.26;85.41;98084.86;1819564;79;20950;-60
2022/09/09 03:07:11;;;;;;;14.93;9.95;;;;;;;11.29;85.53;98072.19;1819542;79;20971;-61
2022/09/09 03:09:39;;;;;;;16.57;9.83;;;;;;;11.29;85.79;98079.70;1819602;79;21356;-62
2022/09/09 03:12:07;;;;;;;13.78;9.35;;;;;;;11.29;86.13;98087.74;1819550;79;20836;-61
2022/09/09 03:14:34;;;;;;;15.28;9.38;;;;;;;11.29;86.28;98088.28;1819649;79;21867;-60
2022/09/09 03:17:03;;;;;;;12.68;9.15;;;;;;;11.30;86.62;98088.55;1819537;79;20916;-60
2022/09/09 03:19:31;;;;;;;16.48;9.60;;;;;;;11.31;86.79;98090.13;1819629;79;20947;-61
2022/09/09 03:22:00;;;;;;;15.23;9.60;;;;;;;11.36;87.04;98078.78;1819509;79;20916;-61
2022/09/09 03:24:28;;;;;;;13.32;9.58;;;;;;;11.39;87.05;98082.77;1819748;79;21439;-64
2022/09/09 03:26:55;;;;;;;13.95;9.00;;;;;;;11.43;87.23;98097.17;1817035;79;21213;-64
2022/09/09 03:29:22;;;;;;;13.35;9.18;;;;;;;11.50;87.25;98097.59;1816596;78;21468;-62
2022/09/09 03:31:51;;;;;;;12.65;8.83;;;;;;;11.56;87.26;98089.73;1789316;79;20842;-62
2022/09/09 03:34:18;;;;;;;12.03;8.48;;;;;;;11.62;87.68;98081.84;1816634;78;20839;-62
2022/09/09 03:36:46;;;;;;;13.35;9.23;;;;;;;11.68;88.06;98075.88;1816887;79;21457;-60
2022/09/09 03:39:14;;;;;;;11.75;8.85;;;;;;;11.70;87.61;98079.86;1789478;79;21071;-61
2022/09/09 03:41:41;;;;;;;13.98;9.15;;;;;;;11.71;87.51;98073.39;1816559;79;20889;-61
2022/09/09 03:44:08;;;;;;;12.10;8.48;;;;;;;11.69;87.41;98078.26;1816621;79;20977;-61
2022/09/09 03:46:38;;;;;;;14.65;8.83;;;;;;;11.68;87.42;98073.43;1816470;79;21378;-61
2022/09/09 03:49:05;;;;;;;12.50;8.80;;;;;;;11.71;87.33;98077.41;1816668;78;20925;-61
2022/09/09 03:51:33;;;;;;;13.62;8.68;;;;;;;11.74;87.29;98070.13;1816725;79;21060;-60
2022/09/09 03:54:00;;;;;;;15.25;8.80;;;;;;;11.77;87.22;98075.45;1816683;78;20850;-62
2022/09/09 03:56:27;;;;;;;13.72;9.45;;;;;;;11.78;86.97;98071.12;1816848;78;21424;-62
2022/09/09 03:58:56;;;;;;;12.70;8.28;;;;;;;11.75;86.91;98069.05;1816939;78;21417;-62
2022/09/09 04:01:22;;;;;;;11.88;7.65;;;;;;;11.72;86.94;98063.46;1816745;79;20984;-63
2022/09/09 04:03:50;;;;;;;11.73;8.20;;;;;;;11.69;87.11;98060.82;1816593;79;21283;-60
2022/09/09 04:06:18;;;;;;;11.43;8.50;;;;;;;11.66;87.24;98060.03;1816640;78;20870;-61
2022/09/09 04:08:48;;;;;;;14.28;8.88;;;;;;;11.63;87.20;98060.64;1816610;79;20905;-63
2022/09/09 04:11:16;;;;;;;13.40;8.88;;;;;;;11.58;87.03;98064.20;1816692;78;20953;-60
2022/09/09 04:13:44;;;;;;;14.15;8.50;;;;;;;11.54;87.05;98066.44;1816731;78;20932;-63
2022/09/09 04:16:16;;;;;;;11.70;8.40;;;;;;;11.50;87.45;98061.38;1816801;78;21069;-59
2022/09/09 04:18:42;;;;;;;11.68;8.23;;;;;;;11.48;87.63;98066.25;1815717;78;21008;-60
2022/09/09 04:21:10;;;;;;;12.37;8.68;;;;;;;11.43;87.94;98056.95;1816612;79;20905;-62
2022/09/09 04:23:37;;;;;;;12.53;8.78;;;;;;;11.38;88.38;98055.69;1816660;79;20850;-63
2022/09/09 04:26:05;;;;;;;12.95;8.15;;;;;;;11.36;88.29;98053.30;1816452;79;20898;-62
2022/09/09 04:28:35;;;;;;;13.10;8.28;;;;;;;11.34;88.53;98035.91;1816122;79;21105;-60
2022/09/09 04:31:09;;;;;;;15.18;8.08;;;;;;;11.33;88.77;98034.34;1816095;79;21476;-62
2022/09/09 04:33:36;;;;;;;11.80;8.18;;;;;;;11.31;88.92;98027.91;1816139;79;20854;-63
2022/09/09 04:36:03;;;;;;;11.45;7.95;;;;;;;11.31;89.07;98033.81;1816096;79;20964;-61
2022/09/09 04:38:30;;;;;;;13.85;8.30;;;;;;;11.29;89.44;98034.66;1784774;79;20869;-61
2022/09/09 04:40:58;;;;;;;14.00;8.15;;;;;;;11.26;89.47;98041.39;1816115;78;21114;-62
2022/09/09 04:43:28;;;;;;;13.25;8.08;;;;;;;11.23;89.75;98037.18;1815901;79;20945;-60
2022/09/09 04:45:55;;;;;;;11.93;7.42;;;;;;;11.21;89.93;98044.16;1815949;78;21508;-63
2022/09/09 04:48:25;;;;;;;14.00;7.55;;;;;;;11.21;90.14;98047.41;1815961;79;20925;-62
2022/09/09 04:51:04;;;;;;;12.10;7.80;;;;;;;11.22;90.31;98053.80;1806503;79;21049;-61
2022/09/09 04:53:33;;;;;;;12.68;7.70;;;;;;;11.24;90.47;98052.16;1792567;79;21112;-62
2022/09/09 04:56:07;;;;;;;13.13;7.50;;;;;;;11.22;90.46;98051.66;1778290;80;20864;-66
2022/09/09 04:58:38;;;;;;;11.97;7.67;;;;;;;11.20;90.74;98047.94;1778451;80;32865;-61
2022/09/09 05:06:23;;;;;;;10.15;7.35;;;;;;;11.22;91.04;98050.32;1792567;79;22121;-60
2022/09/09 05:08:52;;;;;;;12.30;7.90;;;;;;;11.22;91.33;98051.66;1803710;77;20983;-62
2022/09/09 05:11:25;;;;;;;11.83;7.75;;;;;;;11.23;91.35;98057.29;1799355;79;20951;-59
2022/09/09 05:13:56;;;;;;;10.30;7.30;;;;;;;11.23;91.46;98055.95;1784067;77;21510;-61
2022/09/09 05:16:23;;;;;;;11.90;7.45;;;;;;;11.24;91.66;98057.52;1798745;77;20970;-60
2022/09/09 05:18:51;;;;;;;9.58;7.10;;;;;;;11.27;91.85;98044.88;1743219;81;21091;-60
2022/09/09 05:21:19;;;;;;;13.45;7.72;;;;;;;11.27;91.78;98047.02;1748594;81;20981;-60
2022/09/09 05:23:46;;;;;;;12.88;7.47;;;;;;;11.30;91.91;98045.64;1717910;82;21023;-60
2022/09/09 05:26:16;;;;;;;13.25;7.00;;;;;;;11.32;91.87;98038.90;1723707;82;21491;-60
2022/09/09 05:28:43;;;;;;;13.28;7.25;;;;;;;11.33;91.89;98026.30;1742433;80;21105;-60
2022/09/09 05:31:19;;;;;;;9.15;7.53;;;;;;;11.33;92.00;98034.34;1739795;81;21129;-60
2022/09/09 05:33:49;;;;;;;11.57;7.72;;;;;;;11.35;92.12;98033.50;1700040;82;20944;-59
2022/09/09 05:36:18;;;;;;;10.25;7.20;;;;;;;11.37;92.08;98031.31;1725167;80;21071;-59
2022/09/09 05:38:46;;;;;;;11.65;7.35;;;;;;;11.34;92.20;98030.55;1747530;81;20916;-59
2022/09/09 05:41:17;;;;;;;13.22;7.42;;;;;;;11.32;92.34;98025.50;1720633;82;20991;-59
2022/09/09 05:43:44;;;;;;;12.82;7.75;;;;;;;11.31;92.41;98031.12;1716877;80;21253;-61
2022/09/09 05:46:15;;;;;;;10.38;7.58;;;;;;;11.32;92.52;98022.81;1731794;82;21034;-60
2022/09/09 05:48:43;;;;;;;11.00;6.75;;;;;;;11.32;92.56;98023.34;1751566;80;21046;-59
2022/09/09 05:51:12;;;;;;;7.67;6.50;;;;;;;11.34;92.76;98025.19;1746956;80;21125;-63
2022/09/09 05:53:39;;;;;;;10.10;7.00;;;;;;;11.36;92.81;98023.00;1792970;78;21038;-60
2022/09/09 05:56:12;;;;;;;9.85;7.42;;;;;;;11.35;92.92;98025.45;1792595;78;21924;-61
2022/09/09 05:58:39;;;;;;;12.90;7.53;;;;;;;11.33;93.03;98015.57;1793072;77;21656;-61
2022/09/09 06:01:11;;;;;;;9.98;6.37;;;;;;;11.37;93.15;98020.59;1786112;78;21160;-60
2022/09/09 06:03:39;;;;;;;13.10;7.17;;;;;;;11.36;93.19;98021.66;1795380;78;21062;-60
2022/09/09 06:06:22;;;;;;;11.43;6.85;;;;;;;11.34;93.34;98027.87;1731742;80;21130;-60
2022/09/09 06:08:51;;;;;;;11.57;7.28;;;;;;;11.33;93.55;98021.70;1728643;82;21416;-60
2022/09/09 06:11:21;;;;;;;13.75;7.00;;;;;;;11.35;93.73;98021.43;1724473;82;20982;-61
2022/09/09 06:13:53;;;;;;;10.82;6.97;;;;;;;11.36;93.87;98021.13;1768753;81;20971;-60
2022/09/09 06:19:04;;;;;;;;;;;;;;;11.40;94.07;98018.67;1756218;79;21074;-60
2022/09/09 06:21:36;;;;;;;12.35;7.72;;;;;;;11.41;93.98;98013.53;1756666;80;21254;-63
2022/09/09 06:24:04;;;;;;;9.10;6.85;;;;;;;11.41;94.04;98013.53;1728292;80;21037;-58
2022/09/09 06:26:34;;;;;;;9.43;6.95;;;;;;;11.43;94.14;98015.38;1728072;82;21062;-60
2022/09/09 06:29:03;;;;;;;10.88;6.70;;;;;;;11.44;94.14;98004.91;1792207;79;21351;-59
2022/09/09 06:31:34;;;;;;;10.95;7.12;;;;;;;11.40;94.31;98012.73;1770460;77;21645;-61
2022/09/09 06:34:09;;;;;;;11.08;7.60;;;;;;;11.36;94.35;98006.38;1798816;79;21169;-61
2022/09/09 06:36:38;;;;;;;10.88;7.25;;;;;;;11.35;94.59;98032.16;1799319;79;21155;-61
2022/09/09 06:39:10;;;;;;;10.45;7.55;;;;;;;11.34;94.78;98038.59;1793812;78;21070;-59
2022/09/09 06:41:40;;;;;;;10.82;7.45;;;;;;;11.33;94.96;98043.73;1734136;80;20986;-64
2022/09/09 06:44:11;;;;;;;11.75;7.28;;;;;;;11.35;95.11;98048.25;1765830;80;21526;-63
2022/09/09 06:46:41;;;;;;;11.50;7.72;;;;;;;11.37;95.28;98052.77;1808010;79;21217;-61
2022/09/09 06:49:12;;;;;;;15.95;7.42;;;;;;;11.39;94.72;98067.48;1801027;77;20949;-59
2022/09/09 06:51:42;;;;;;;16.25;7.90;;;;;;;11.38;95.29;98066.41;1804791;77;21037;-60
2022/09/09 06:54:12;;;;;;;10.20;6.67;;;;;;;11.36;95.52;98063.23;1805673;77;21014;-60
2022/09/09 06:56:41;;;;;;;12.95;7.92;;;;;;;11.36;95.61;98058.67;1803826;79;22128;-60
2022/09/09 06:59:13;;;;;;;10.58;8.20;;;;;;;11.40;95.81;98049.51;1759211;79;21110;-61
2022/09/09 07:01:44;;;;;;;11.25;7.78;;;;;;;11.39;95.89;98040.66;1801830;79;20968;-59
2022/09/09 07:04:15;;;;;;;11.43;8.05;;;;;;;11.39;96.09;98054.61;1807651;79;21100;-60
2022/09/09 07:06:46;;;;;;;10.95;7.92;;;;;;;11.38;96.34;98047.64;1795343;78;20955;-60
2022/09/09 07:09:22;;;;;;;10.05;8.05;;;;;;;11.36;96.54;98043.92;1796883;78;21064;-61
2022/09/09 07:11:53;;;;;;;13.65;8.33;;;;;;;11.37;96.84;98042.84;1790514;77;21373;-60
2022/09/09 07:14:22;;;;;;;8.90;6.80;;;;;;;11.40;97.14;98046.83;1795447;78;21038;-59
2022/09/09 07:16:51;;;;;;;11.38;7.58;;;;;;;11.43;97.15;98042.19;1736248;82;21073;-59
2022/09/09 07:19:20;;;;;;;10.43;7.55;;;;;;;11.47;97.34;98043.22;1800933;78;21023;-60
2022/09/09 07:21:49;;;;;;;9.55;7.53;;;;;;;11.50;97.52;98039.92;1798231;78;20915;-60
2022/09/09 07:24:17;;;;;;;11.53;7.25;;;;;;;11.48;97.77;98031.38;1798961;78;21357;-60
2022/09/09 07:26:46;;;;;;;10.93;7.28;;;;;;;11.49;97.81;98047.17;1776001;78;21436;-58
2022/09/09 07:29:13;;;;;;;10.53;7.22;;;;;;;11.55;98.02;98035.82;1806802;79;21112;-58
2022/09/09 07:31:42;;;;;;;11.50;7.10;;;;;;;11.60;97.96;98037.08;1801460;79;21051;-60
2022/09/09 07:34:10;;;;;;;14.95;7.45;;;;;;;11.64;98.02;98038.07;1793734;79;21516;-60
2022/09/09 07:36:39;;;;;;;11.10;7.65;;;;;;;11.72;97.94;98031.27;1798926;79;21114;-59
2022/09/09 07:39:17;;;;;;;9.65;7.17;;;;;;;11.73;97.93;98030.95;1802766;77;20992;-60
2022/09/09 07:41:49;;;;;;;11.55;7.15;;;;;;;11.74;97.91;98033.90;1772194;79;21007;-60
2022/09/09 07:44:27;;;;;;;10.32;7.65;;;;;;;11.76;97.92;98026.34;1792587;79;21004;-58
2022/09/09 07:46:59;;;;;;;9.73;7.30;;;;;;;11.79;97.92;98026.30;1802223;79;21336;-59
2022/09/09 07:49:29;;;;;;;9.08;6.75;;;;;;;11.79;97.96;98021.73;1760799;81;21417;-59
2022/09/09 07:51:57;;;;;;;9.60;6.60;;;;;;;11.81;98.13;98014.72;1764578;79;20982;-61
2022/09/09 07:54:24;;;;;;;11.22;7.00;;;;;;;11.81;98.39;98014.18;1723616;82;21038;-58
2022/09/09 07:56:51;;;;;;;13.83;7.37;;;;;;;11.79;98.47;98017.71;1736281;80;20979;-61
2022/09/09 07:59:24;;;;;;;9.55;6.30;;;;;;;11.82;98.62;98016.33;1739532;81;21062;-60
2022/09/09 08:01:55;;;;;;;7.65;6.55;;;;;;;11.83;98.61;98016.02;1744611;81;21209;-67
2022/09/09 08:04:25;;;;;;;12.33;6.90;;;;;;;11.85;98.79;98007.12;1752114;80;21122;-60
2022/09/09 08:06:59;;;;;;;9.95;7.25;;;;;;;11.86;98.82;98016.77;1734345;80;21588;-63
2022/09/09 08:09:28;;;;;;;10.05;6.60;;;;;;;11.85;98.96;98004.44;1728445;82;20959;-64
2022/09/09 08:11:58;;;;;;;9.83;6.47;;;;;;;11.85;99.17;98008.45;1790897;78;21601;-62
2022/09/09 08:14:26;;;;;;;8.13;6.47;;;;;;;11.85;99.17;98013.83;1795809;79;21544;-59
2022/09/09 08:16:56;;;;;;;10.70;6.62;;;;;;;11.87;99.35;98013.55;1795469;79;21033;-59
2022/09/09 08:19:23;;;;;;;10.13;6.55;;;;;;;11.87;99.57;98028.31;1785415;79;21061;-60
2022/09/09 08:21:51;;;;;;;7.60;6.60;;;;;;;11.88;99.56;98037.39;1808175;79;20933;-59
2022/09/09 08:24:27;;;;;;;13.58;6.62;;;;;;;11.92;99.67;98054.48;1801352;79;21032;-60
2022/09/09 08:26:56;;;;;;;8.60;6.60;;;;;;;11.92;99.64;98053.14;1812516;77;21879;-59
2022/09/09 08:29:31;;;;;;;9.30;7.05;;;;;;;11.94;99.61;98069.75;1835532;77;21240;-63
2022/09/09 08:31:58;;;;;;;7.42;6.05;;;;;;;11.94;99.86;98064.37;1796499;77;21439;-59
2022/09/09 08:34:26;;;;;;;8.40;5.92;;;;;;;11.95;99.77;98078.59;1756468;80;20999;-61
2022/09/09 08:36:54;;;;;;;9.75;5.95;;;;;;;11.97;99.78;98079.90;1794413;79;21474;-60
2022/09/09 08:39:24;;;;;;;10.28;6.60;;;;;;;11.99;99.75;98077.70;1798628;79;21716;-59
2022/09/09 08:42:25;;;;;;;7.83;5.90;;;;;;;12.02;99.77;98086.52;1802856;79;21027;-58
2022/09/09 08:45:28;;;;;;;9.35;6.65;;;;;;;12.01;99.70;98082.23;1796863;79;21164;-61
2022/09/09 08:48:22;;;;;;;8.23;6.12;;;;;;;12.07;99.67;98078.38;1807095;77;20963;-58
2022/09/09 08:50:49;;;;;;;9.25;6.28;;;;;;;12.10;99.59;98084.50;1754486;80;20908;-59
2022/09/09 08:53:26;;;;;;;11.03;6.10;;;;;;;12.14;99.52;98086.83;1787792;78;21006;-58
2022/09/09 08:56:01;;;;;;;9.35;6.67;;;;;;;12.17;99.40;98086.24;1799464;78;21042;-59
2022/09/09 08:58:33;;;;;;;8.35;6.67;;;;;;;12.19;99.39;98078.69;1775599;77;20961;-60
2022/09/09 09:01:31;;;;;;;12.55;7.60;;;;;;;12.23;99.24;98081.55;1789477;79;21574;-58
2022/09/09 09:04:43;;;;;;;10.45;6.95;;;;;;;12.23;99.16;98075.64;1801278;79;21091;-58
2022/09/09 09:07:37;;;;;;;8.88;6.37;;;;;;;12.26;99.18;98073.70;1760043;80;21295;-57
2022/09/09 09:10:17;;;;;;;8.33;6.67;;;;;;;12.29;99.23;98069.06;1796672;78;21513;-59
2022/09/09 09:12:47;;;;;;;7.33;6.40;;;;;;;12.38;99.29;98068.38;1795581;79;21004;-58
2022/09/09 09:15:24;;;;;;;6.90;5.90;;;;;;;12.46;99.24;98062.31;1807291;77;21497;-57
2022/09/09 09:17:51;;;;;;;9.15;6.15;;;;;;;12.57;99.03;98061.80;1729590;81;21030;-59
2022/09/09 09:20:24;;;;;;;7.08;6.20;;;;;;;12.62;98.59;98063.58;1762995;81;21059;-58
2022/09/09 09:22:53;;;;;;;10.43;6.67;;;;;;;12.62;98.31;98064.92;1775276;78;20906;-58
2022/09/09 09:25:23;;;;;;;8.78;6.60;;;;;;;12.62;98.18;98063.03;1739936;79;22074;-58
2022/09/09 09:28:22;;;;;;;9.73;6.37;;;;;;;12.61;98.32;98064.66;1799543;79;20995;-58
2022/09/09 09:31:02;;;;;;;9.13;6.80;;;;;;;12.62;98.23;98060.35;1793665;77;20928;-59
2022/09/09 09:33:43;;;;;;;8.90;6.80;;;;;;;12.66;98.08;98055.16;1793779;77;21708;-64
2022/09/09 09:36:11;;;;;;;10.82;8.03;;;;;;;12.66;98.02;98060.53;1786410;79;21385;-61
2022/09/09 09:38:40;;;;;;;8.90;7.35;;;;;;;12.68;97.83;98058.33;1784029;80;20923;-60
2022/09/09 09:41:06;;;;;;;9.53;7.17;;;;;;;12.69;97.72;98065.31;1798401;77;21094;-62
2022/09/09 09:43:36;;;;;;;14.78;7.75;;;;;;;12.70;97.52;98062.85;1794946;78;21035;-60
2022/09/09 09:46:05;;;;;;;10.15;6.75;;;;;;;12.70;97.41;98062.31;1804394;79;21209;-60
2022/09/09 09:48:34;;;;;;;8.50;6.90;;;;;;;12.73;97.36;98068.44;1801863;79;21542;-57
2022/09/09 09:51:10;;;;;;;11.75;7.92;;;;;;;12.74;97.17;98070.58;1781417;79;21115;-59
2022/09/09 09:53:38;;;;;;;10.82;7.45;;;;;;;12.77;97.05;98076.67;1714033;82;21083;-58
2022/09/09 09:56:10;;;;;;;26.30;18.80;;;;;;;12.77;96.72;98072.64;1738950;80;21015;-58
2022/09/09 09:58:53;;;;;;;11.00;7.05;;;;;;;12.81;96.71;98072.30;1745659;81;21148;-60
2022/09/09 10:01:33;;;;;;;97.35;63.63;;;;;;;12.84;96.60;98077.05;1734224;80;21112;-57
2022/09/09 10:04:04;;;;;;;15.98;10.70;;;;;;;12.89;96.37;98082.33;1720566;80;20997;-57
2022/09/09 10:06:36;;;;;;;32.70;21.93;;;;;;;12.94;95.94;98083.56;1800848;77;21569;-55
2022/09/09 10:09:07;;;;;;;15.05;11.30;;;;;;;12.96;95.61;98081.36;1814511;79;21082;-58
2022/09/09 10:11:52;;;;;;;9.30;6.80;;;;;;;12.99;95.40;98082.11;1799197;77;21143;-57
2022/09/09 10:14:30;;;;;;;14.40;11.73;;;;;;;13.05;95.15;98082.22;1781845;79;21128;-56
2022/09/09 10:17:03;;;;;;;63.20;42.93;;;;;;;13.10;94.72;98080.00;1804033;77;21034;-54
2022/09/09 10:19:36;;;;;;;20.48;14.60;;;;;;;13.10;94.54;98084.83;1807871;79;21067;-57
2022/09/09 10:22:11;;;;;;;10.10;8.30;;;;;;;13.08;94.47;98091.07;1805794;77;21034;-57
2022/09/09 10:25:21;;;;;;;9.70;6.60;;;;;;;13.02;94.38;98086.31;1804093;77;21230;-58
2022/09/09 10:28:15;;;;;;;7.78;6.40;;;;;;;13.00;94.20;98085.05;1798474;77;20912;-60
2022/09/09 10:31:09;;;;;;;8.30;6.70;;;;;;;12.97;94.12;98093.17;1755425;80;21038;-58
2022/09/09 10:33:53;;;;;;;8.40;6.60;;;;;;;12.92;94.17;98081.19;1761081;78;21905;-56
2022/09/09 10:36:28;;;;;;;8.25;6.80;;;;;;;12.93;94.09;98080.64;1767689;80;21646;-58
2022/09/09 10:39:06;;;;;;;9.73;6.22;;;;;;;12.90;93.97;98078.02;1765601;78;21277;-57
2022/09/09 10:42:06;;;;;;;10.13;7.55;;;;;;;12.88;93.92;98088.81;1749875;81;21038;-58
2022/09/09 10:44:55;;;;;;;10.05;8.13;;;;;;;12.88;94.03;98082.09;1755875;78;20975;-57
2022/09/09 10:48:16;;;;;;;7.97;7.05;;;;;;;12.90;94.06;98091.99;1770789;78;21464;-59
2022/09/09 10:51:04;;;;;;;9.90;6.80;;;;;;;12.88;93.94;98100.91;1774546;80;20947;-59
2022/09/09 10:53:49;;;;;;;10.98;7.83;;;;;;;12.86;94.12;98100.39;1779483;80;21240;-57
2022/09/09 10:56:18;;;;;;;8.38;7.10;;;;;;;12.84;94.43;98100.70;1743540;80;21126;-58
2022/09/09 10:58:52;;;;;;;7.58;6.70;;;;;;;12.81;94.49;98104.56;1750347;80;21122;-58
2022/09/09 11:01:26;;;;;;;9.28;7.05;;;;;;;12.78;94.81;98099.78;1711231;83;21084;-58
2022/09/09 11:03:58;;;;;;;9.78;7.03;;;;;;;12.75;94.95;98101.72;1777540;80;20999;-58
2022/09/09 11:06:31;;;;;;;9.13;7.47;;;;;;;12.70;95.13;98113.91;1781382;80;21225;-58
2022/09/09 11:08:58;;;;;;;10.90;7.33;;;;;;;12.66;95.52;98120.99;1775987;80;21064;-58
2022/09/09 11:11:39;;;;;;;8.65;6.92;;;;;;;12.64;95.83;98115.92;1682861;83;21042;-56
2022/09/09 11:14:27;;;;;;;8.65;7.05;;;;;;;12.63;95.92;98112.98;1682711;83;21135;-55
2022/09/09 11:17:06;;;;;;;9.70;6.70;;;;;;;12.62;96.06;98115.44;1744903;82;21065;-54
2022/09/09 11:19:43;;;;;;;8.60;7.03;;;;;;;12.61;96.42;98117.06;1740155;80;21455;-55
2022/09/09 11:22:25;;;;;;;9.25;7.05;;;;;;;12.57;96.56;98122.25;1725077;82;21086;-55
2022/09/09 11:25:00;;;;;;;16.73;6.10;;;;;;;12.56;96.82;98123.33;1708789;83;21004;-56
2022/09/09 11:27:41;;;;;;;7.58;6.47;;;;;;;12.55;96.87;98113.70;1707335;80;20956;-56
2022/09/09 11:30:26;;;;;;;8.78;7.00;;;;;;;12.55;97.09;98111.55;1768111;80;20965;-56
2022/09/09 11:33:21;;;;;;;8.15;7.00;;;;;;;12.57;97.26;98109.36;1773491;79;22708;-57
2022/09/09 11:35:56;;;;;;;10.72;7.85;;;;;;;12.58;97.41;98109.59;1795474;77;20947;-56
2022/09/09 11:38:28;;;;;;;7.58;6.67;;;;;;;12.61;97.63;98113.83;1793236;77;21518;-56
2022/09/09 11:41:04;;;;;;;8.93;6.78;;;;;;;12.65;97.47;98118.05;1801435;77;21467;-55
2022/09/09 11:43:45;;;;;;;7.65;6.58;;;;;;;12.67;97.57;98101.09;1716236;80;21510;-60
2022/09/09 11:46:16;;;;;;;10.25;7.42;;;;;;;12.68;97.51;98098.10;1746075;80;21239;-55
2022/09/09 11:48:45;;;;;;;8.63;6.60;;;;;;;12.69;97.42;98110.99;1744569;82;20994;-57
2022/09/09 11:51:21;;;;;;;11.53;6.78;;;;;;;12.68;97.34;98097.30;1745348;82;21053;-57
2022/09/09 11:54:04;;;;;;;8.68;7.03;;;;;;;12.68;97.45;98106.70;1744768;82;21087;-55
2022/09/09 11:56:45;;;;;;;10.70;7.37;;;;;;;12.69;97.42;98102.93;1744290;82;21081;-55
2022/09/09 11:59:27;;;;;;;9.23;6.75;;;;;;;12.67;97.34;98101.09;1744400;82;21117;-55
2022/09/09 12:02:26;;;;;;;10.28;6.85;;;;;;;12.67;97.49;98102.44;1742570;82;21474;-54
2022/09/09 12:05:11;;;;;;;10.63;7.47;;;;;;;12.67;97.51;98102.44;1736503;82;21100;-57
2022/09/09 12:07:43;;;;;;;13.62;7.12;;;;;;;12.68;97.55;98094.61;1746060;82;21010;-55
2022/09/09 12:10:27;;;;;;;10.45;7.03;;;;;;;12.68;97.49;98104.81;1744770;82;21495;-56
2022/09/09 12:12:53;;;;;;;9.95;6.40;;;;;;;12.70;97.19;98109.34;1720410;82;21234;-56